Flight Track Log - Related Links

Times and Time Zones

All times are in EDT time to prevent confusion due to time zone crossing. See the AAL1358 flight status page for this flight to view local times or setup timezone preferences in your user account.

Time Position Orientation Groundspeed Altitude Reporting Facility
EDT Latitude Longitude Course Direction KTS MPH feet Rate Location/Type
Fri 07:01:00 PM 47.5050 -121.9436 72° East  Level FlightAware
Fri 07:02:00 PM 47.5434 -121.7645 72° East  Level FlightAware
Fri 07:03:00 PM 47.5500 -121.5779 90° East  Level FlightAware
Fri 07:04:00 PM 47.5500 -121.3898 90° East  Level FlightAware
Fri 07:04:22 PM 47.3670 -121.9690 90° East 339 390 10,900  Level FlightAware
Fri 07:05:00 PM 47.5500 -121.2017 90° East  Level FlightAware
Fri 07:05:12 PM 47.4160 -121.8610 56° Northeast 383 441 12,900  Level FlightAware
Fri 07:06:07 PM 47.4650 -121.7510 57° Northeast 390 449 14,000 1,930 Climbing FlightAware
Fri 07:07:07 PM 47.5320 -121.6050 56° Northeast 414 476 16,600 2,914 Climbing FlightAware
Fri 07:07:52 PM 47.5590 -121.4770 73° East 435 501 19,100 2,640 Climbing FlightAware
Fri 07:08:47 PM 47.5560 -121.3000 91° East 455 524 21,000 2,067 Climbing FlightAware
Fri 07:09:22 PM 47.5540 -121.1890 91° East 463 533 22,200 1,906 Climbing FlightAware
Fri 07:10:12 PM 47.5520 -121.0320 91° East 474 545 23,700 1,600 Climbing FlightAware
Fri 07:11:07 PM 47.5480 -120.8520 92° East 491 565 25,000 1,516 Climbing FlightAware
Fri 07:11:47 PM 47.5450 -120.7130 92° East 501 577 26,100 1,553 Climbing FlightAware
Fri 07:12:32 PM 47.5420 -120.5590 92° East 511 588 27,200 1,357 Climbing FlightAware
Fri 07:13:42 PM 47.5350 -120.3130 92° East 521 600 28,700 1,329 Climbing FlightAware
Fri 07:14:52 PM 47.5050 -120.0730 100° East 526 605 30,300 1,511 Climbing FlightAware
Fri 07:15:57 PM 47.4720 -119.8520 102° East 518 596 32,100 1,600 Climbing FlightAware
Fri 07:16:37 PM 47.4510 -119.7080 102° East 516 594 33,100 1,425 Climbing FlightAware
Fri 07:17:17 PM 47.4360 -119.5760 99° East 516 594 34,000 635 Climbing FlightAware
Fri 07:18:02 PM 47.4180 -119.4410 101° East 516 594 34,000  Level FlightAware
Fri 07:18:52 PM 47.3990 -119.2930 101° East 516 594 34,000  Level FlightAware
Fri 07:19:32 PM 47.3830 -119.1760 101° East 516 594 34,000  Level FlightAware
Fri 07:20:12 PM 47.3680 -119.0580 101° East 516 594 34,000  Level FlightAware
Fri 07:20:52 PM 47.3520 -118.9400 101° East 516 594 34,000  Level FlightAware
Fri 07:21:32 PM 47.3370 -118.8230 101° East 516 594 34,000  Level FlightAware
Fri 07:22:12 PM 47.3210 -118.7050 101° East 516 594 34,000  Level FlightAware
Fri 07:23:02 PM 47.3020 -118.5580 101° East 516 594 34,000  Level FlightAware
Fri 07:23:42 PM 47.2860 -118.4410 101° East 516 594 34,000  Level FlightAware
Fri 07:24:22 PM 47.2710 -118.3240 101° East 516 594 34,000  Level FlightAware
Fri 07:25:02 PM 47.2550 -118.2060 101° East 516 594 34,000  Level FlightAware
Fri 07:25:52 PM 47.2360 -118.0590 101° East 516 594 34,000  Level FlightAware
Fri 07:26:32 PM 47.2200 -117.9420 101° East 516 594 34,000  Level FlightAware
Fri 07:27:12 PM 47.2050 -117.8250 101° East 516 594 34,000 1,689 Level FlightAware
Fri 07:28:15 PM 47.4781 -117.3069 101° East 504 580 36,900 1,452 Climbing Seattle Center
Fri 07:29:16 PM 47.4786 -117.1056 90° East 506 582 37,000 49 Climbing Seattle Center
Fri 07:30:17 PM 47.4814 -116.9047 89° East 506 582 37,000  Level Seattle Center
Fri 07:31:18 PM 47.4819 -116.7011 90° East 504 580 37,000 -50 Level Seattle Center
Fri 07:32:18 PM 47.4825 -116.4956 90° East 504 580 36,900  Descending Seattle Center
Fri 07:33:19 PM 47.4831 -116.2917 90° East 499 574 37,000 49 Climbing Seattle Center
Fri 07:34:20 PM 47.4822 -116.0892 90° East 496 571 37,000  Level Seattle Center
Fri 07:35:21 PM 47.4828 -115.8889 90° East 491 565 37,000  Level Seattle Center
Fri 07:36:22 PM 47.4819 -115.6858 90° East 491 565 37,000  Level Seattle Center
Fri 07:37:23 PM 47.4808 -115.4444 90° East 492 566 37,000  Level Seattle Center
Fri 07:38:24 PM 47.4794 -115.2475 91° East 486 559 37,000  Level Seattle Center
Fri 07:39:25 PM 47.4789 -115.0494 90° East 485 558 37,000 -49 Level Seattle Center
Fri 07:40:26 PM 47.4764 -114.8506 91° East 486 559 36,900  Descending Seattle Center
Fri 07:41:27 PM 47.4731 -114.6519 91° East 487 560 37,000 74 Climbing Seattle Center
Fri 07:41:47 PM 47.4719 -114.5708 91° East 487 560 37,000 -73 Level Salt Center
Fri 07:42:49 PM 47.4692 -114.3739 91° East 487 560 36,900  Descending Salt Center
Fri 07:43:50 PM 47.4653 -114.1764 92° East 486 559 37,000  Climbing Salt Center
Fri 07:44:52 PM 47.4611 -113.9803 92° East 484 557 36,900 -48 Descending Salt Center
Fri 07:45:54 PM 47.4572 -113.7806 92° East 489 563 36,900  Level Salt Center
Fri 07:46:56 PM 47.4517 -113.5439 92° East 485 558 36,900  Level Salt Center
Fri 07:47:57 PM 47.4469 -113.3442 92° East 489 563 36,900 49 Level Salt Center
Fri 07:48:59 PM 47.4417 -113.1453 92° East 488 562 37,000  Climbing Salt Center
Fri 07:50:01 PM 47.4364 -112.9469 92° East 487 560 36,900  Descending Salt Center
Fri 07:51:02 PM 47.4311 -112.7425 92° East 491 565 37,000 49 Climbing Salt Center
Fri 07:52:04 PM 47.4244 -112.5369 93° East 490 564 37,000  Level Salt Center
Fri 07:53:06 PM 47.4175 -112.3403 93° East 494 568 37,000 -48 Level Salt Center
Fri 07:54:08 PM 47.4097 -112.0981 93° East 495 570 36,900  Descending Salt Center
Fri 07:55:09 PM 47.4019 -111.8978 93° East 493 567 37,000  Climbing Salt Center
Fri 07:56:11 PM 47.3936 -111.7003 93° East 489 563 36,900 -48 Descending Salt Center
Fri 07:57:13 PM 47.3861 -111.5042 93° East 487 560 36,900 49 Level Salt Center
Fri 07:58:14 PM 47.3772 -111.3075 94° East 489 563 37,000 49 Climbing Salt Center
Fri 07:59:16 PM 47.3681 -111.0731 93° East 487 560 37,000  Level Salt Center
Fri 08:00:18 PM 47.3589 -110.8781 94° East 484 557 37,000  Level Salt Center
Fri 08:01:20 PM 47.3494 -110.6833 94° East 481 554 37,000 -48 Level Salt Center
Fri 08:02:22 PM 47.3400 -110.4856 94° East 484 557 36,900  Descending Salt Center
Fri 08:03:23 PM 47.3297 -110.2889 94° East 485 558 37,000 49 Climbing Salt Center
Fri 08:04:25 PM 47.3203 -110.0908 94° East 488 562 37,000  Level Salt Center
Fri 08:05:26 PM 47.3100 -109.8922 94° East 488 562 37,000 -49 Level Salt Center
Fri 08:06:28 PM 47.2953 -109.6542 95° East 490 564 36,900  Descending Salt Center
Fri 08:07:30 PM 47.2839 -109.4553 95° East 489 563 37,000  Climbing Salt Center
Fri 08:08:31 PM 47.2728 -109.2536 95° East 494 568 36,900  Descending Salt Center
Fri 08:09:33 PM 47.2600 -109.0558 95° East 491 565 37,000  Climbing Salt Center
Fri 08:10:35 PM 47.2464 -108.8564 96° East 492 566 36,900  Descending Salt Center
Fri 08:11:37 PM 47.2342 -108.6561 95° East 493 567 37,000  Climbing Salt Center
Fri 08:12:38 PM 47.2203 -108.4292 95° East 493 567 36,900  Descending Salt Center
Fri 08:13:40 PM 47.2061 -108.2172 96° East 490 564 37,000 49 Climbing Salt Center
Fri 08:14:41 PM 47.1919 -108.0297 96° East 485 558 37,000  Level Salt Center
Fri 08:15:43 PM 47.1761 -107.8089 96° East 485 558 37,000  Level Salt Center
Fri 08:16:45 PM 47.1622 -107.6206 96° East 486 559 37,000  Level Salt Center
Fri 08:17:46 PM 47.1478 -107.4325 96° East 484 557 37,000  Level Salt Center
Fri 08:18:48 PM 47.1297 -107.2125 97° East 484 557 37,000  Level Salt Center
Fri 08:19:50 PM 47.1156 -107.0256 96° East 483 556 37,000  Level Salt Center
Fri 08:20:51 PM 47.0983 -106.8069 97° East 482 555 37,000  Level Salt Center
Fri 08:21:53 PM 47.0814 -106.6217 98° East 480 552 37,000  Level Salt Center
Fri 08:22:54 PM 47.0625 -106.4042 97° East 480 552 37,000 -49 Level Salt Center
Fri 08:23:56 PM 47.0486 -106.2433 97° East 479 551 36,900 -49 Descending Salt Center
Fri 08:24:57 PM 47.0322 -106.0533 97° East 475 547 36,900 49 Level Salt Center
Fri 08:25:59 PM 47.0111 -105.8228 98° East 477 549 37,000 48 Climbing Salt Center
Fri 08:27:01 PM 46.9928 -105.6303 98° East 478 550 37,000  Level Salt Center
Fri 08:28:02 PM 46.9742 -105.4397 98° East 476 548 37,000  Level Salt Center
Fri 08:29:04 PM 46.9553 -105.2464 98° East 479 551 37,000  Level Salt Center
Fri 08:30:06 PM 46.9361 -105.0558 98° East 480 552 37,000  Level Salt Center
Fri 08:31:07 PM 46.9175 -104.8664 98° East 476 548 37,000  Level Salt Center
Fri 08:32:09 PM 46.8986 -104.6756 98° East 476 548 37,000 -49 Level Salt Center
Fri 08:33:10 PM 46.8747 -104.4472 99° East 477 549 36,900 -49 Descending Salt Center
Fri 08:34:12 PM 46.8547 -104.2583 99° East 475 547 36,900 48 Level Salt Center
Fri 08:35:14 PM 46.8353 -104.0694 98° East 474 545 37,000 49 Climbing Salt Center
Fri 08:36:15 PM 46.8150 -103.8822 99° East 473 544 37,000  Level Salt Center
Fri 08:37:17 PM 46.7953 -103.6944 99° East 472 543 37,000  Level Salt Center
Fri 08:38:19 PM 46.7750 -103.5067 99° East 472 543 37,000  Level Salt Center
Fri 08:39:20 PM 46.7494 -103.2814 99° East 472 543 37,000  Level Salt Center
Fri 08:40:22 PM 46.7283 -103.0956 99° East 471 542 37,000  Level Salt Center
Fri 08:41:23 PM 46.7067 -102.9117 100° East 468 539 37,000  Level Salt Center
Fri 08:41:47 PM 46.6981 -102.8400 100° East 469 540 37,000 -70 Level Minneapolis Center
Fri 08:42:49 PM 46.6764 -102.6542 100° East 469 540 36,900 -48 Descending Minneapolis Center
Fri 08:43:51 PM 46.6500 -102.4708 102° East 468 539 36,900 48 Level Minneapolis Center
Fri 08:44:53 PM 46.6169 -102.2867 105° East 471 542 37,000 48 Climbing Minneapolis Center
Fri 08:45:55 PM 46.5778 -102.0700 105° East 467 537 37,000  Level Minneapolis Center
Fri 08:46:57 PM 46.5447 -101.8906 105° East 464 534 37,000  Level Minneapolis Center
Fri 08:48:00 PM 46.5117 -101.7111 105° East 463 533 37,000  Level Minneapolis Center
Fri 08:49:02 PM 46.4744 -101.5178 106° East 464 534 37,000  Level Minneapolis Center
Fri 08:50:04 PM 46.4403 -101.3361 105° East 465 535 37,000  Level Minneapolis Center
Fri 08:51:06 PM 46.4064 -101.1561 105° East 464 534 37,000  Level Minneapolis Center
Fri 08:52:08 PM 46.3725 -100.9747 105° East 465 535 37,000  Level Minneapolis Center
Fri 08:53:10 PM 46.3294 -100.7586 106° East 466 536 37,000  Level Minneapolis Center
Fri 08:54:12 PM 46.2942 -100.5792 106° East 464 534 37,000  Level Minneapolis Center
Fri 08:55:14 PM 46.2589 -100.4000 106° East 463 533 37,000  Level Minneapolis Center
Fri 08:56:16 PM 46.2231 -100.2203 106° East 464 534 37,000  Level Minneapolis Center
Fri 08:57:18 PM 46.1875 -100.0422 106° East 462 532 37,000  Level Minneapolis Center
Fri 08:58:20 PM 46.1519 -99.8628 106° East 463 533 37,000  Level Minneapolis Center
Fri 08:59:22 PM 46.1150 -99.6850 107° East 462 532 37,000  Level Minneapolis Center
Fri 09:00:24 PM 46.0711 -99.4722 106° East 462 532 37,000  Level Minneapolis Center
Fri 09:01:26 PM 46.0342 -99.2953 107° East 460 529 37,000  Level Minneapolis Center
Fri 09:02:28 PM 45.9975 -99.1208 107° East 458 527 37,000  Level Minneapolis Center
Fri 09:03:30 PM 45.9603 -98.9439 107° East 459 528 37,000  Level Minneapolis Center
Fri 09:04:32 PM 45.9225 -98.7689 107° East 458 527 37,000  Level Minneapolis Center
Fri 09:05:34 PM 45.8856 -98.5922 107° East 460 529 37,000  Level Minneapolis Center
Fri 09:06:36 PM 45.8486 -98.4186 107° East 458 527 37,000  Level Minneapolis Center
Fri 09:07:38 PM 45.8008 -98.2078 108° East 459 528 37,000  Level Minneapolis Center
Fri 09:08:40 PM 45.7622 -98.0353 108° East 460 529 37,000  Level Minneapolis Center
Fri 09:09:43 PM 45.7233 -97.8639 108° East 457 526 37,000  Level Minneapolis Center
Fri 09:10:45 PM 45.6853 -97.6942 108° East 451 519 37,000  Level Minneapolis Center
Fri 09:11:47 PM 45.6472 -97.5236 108° East 450 518 37,000  Level Minneapolis Center
Fri 09:12:49 PM 45.6083 -97.3536 108° East 450 518 37,000  Level Minneapolis Center
Fri 09:13:51 PM 45.5622 -97.1511 108° East 449 517 37,000  Level Minneapolis Center
Fri 09:14:53 PM 45.5217 -96.9833 109° East 448 516 37,000  Level Minneapolis Center
Fri 09:15:55 PM 45.4822 -96.8153 108° East 447 514 37,000  Level Minneapolis Center
Fri 09:16:57 PM 45.4431 -96.6481 108° East 445 512 37,000  Level Minneapolis Center
Fri 09:17:59 PM 45.4036 -96.4783 108° East 449 517 37,000  Level Minneapolis Center
Fri 09:19:01 PM 45.3636 -96.3122 109° East 447 514 37,000  Level Minneapolis Center
Fri 09:20:03 PM 45.3153 -96.1122 109° East 445 512 37,000  Level Minneapolis Center
Fri 09:21:05 PM 45.2750 -95.9464 109° East 445 512 37,000  Level Minneapolis Center
Fri 09:22:07 PM 45.2347 -95.7808 109° East 444 511 37,000  Level Minneapolis Center
Fri 09:23:09 PM 45.1931 -95.6150 110° East 445 512 37,000  Level Minneapolis Center
Fri 09:24:11 PM 45.1519 -95.4489 109° East 447 514 37,000  Level Minneapolis Center
Fri 09:25:13 PM 45.1108 -95.2831 109° East 447 514 37,000  Level Minneapolis Center
Fri 09:26:15 PM 45.0689 -95.1172 110° East 448 516 37,000  Level Minneapolis Center
Fri 09:27:17 PM 45.0186 -94.9175 110° East 449 517 37,000  Level Minneapolis Center
Fri 09:28:19 PM 44.9761 -94.7522 110° East 449 517 37,000  Level Minneapolis Center
Fri 09:29:21 PM 44.9339 -94.5922 110° East 452 520 37,000  Level Minneapolis Center
Fri 09:30:23 PM 44.8914 -94.4267 110° East 452 520 37,000  Level Minneapolis Center
Fri 09:31:25 PM 44.8467 -94.2603 111° Southeast 455 524 37,000  Level Minneapolis Center
Fri 09:32:27 PM 44.7947 -94.0622 110° East 453 521 37,000 -302 Level Minneapolis Center
Fri 09:38:02 PM 44.5460 -93.1380 110° East 456 525 35,000 -324 Descending FlightAware
Fri 09:38:37 PM 44.5210 -93.0490 111° Southeast 456 525 35,000  Level FlightAware
Fri 09:39:17 PM 44.4950 -92.9550 111° Southeast 456 525 35,000  Level FlightAware
Fri 09:40:07 PM 44.4630 -92.8380 111° Southeast 456 525 35,000  Level FlightAware
Fri 09:40:47 PM 44.4380 -92.7440 110° East 456 525 35,000  Level FlightAware
Fri 09:41:27 PM 44.4120 -92.6500 111° Southeast 456 525 35,000  Level FlightAware
Fri 09:42:02 PM 44.3560 -92.4810 115° Southeast 463 533 35,000  Level FlightAware
Fri 09:42:52 PM 44.3050 -92.3400 117° Southeast 464 534 35,000  Level FlightAware
Fri 09:43:37 PM 44.2600 -92.2200 118° Southeast 465 535 35,000  Level FlightAware
Fri 09:44:17 PM 44.2220 -92.1160 117° Southeast 466 536 35,000  Level FlightAware
Fri 09:45:02 PM 44.1790 -92.0010 118° Southeast 466 536 35,000  Level FlightAware
Fri 09:45:42 PM 44.1380 -91.8900 117° Southeast 467 537 35,000  Level FlightAware
Fri 09:46:22 PM 44.0980 -91.7820 117° Southeast 467 537 35,000  Level FlightAware
Fri 09:47:07 PM 44.0530 -91.6630 118° Southeast 466 536 35,000  Level FlightAware
Fri 09:47:47 PM 44.0140 -91.5570 117° Southeast 466 536 35,000  Level FlightAware
Fri 09:48:22 PM 43.9810 -91.4710 118° Southeast 466 536 35,000 -71 Level FlightAware
Fri 09:49:12 PM 43.9270 -91.3290 118° Southeast 466 536 34,900 -533 Descending FlightAware
Fri 09:49:52 PM 43.8880 -91.2260 118° Southeast 457 526 34,200 -1,200 Descending FlightAware
Fri 09:50:37 PM 43.8440 -91.1110 118° Southeast 451 519 33,200 -2,118 Descending FlightAware
Fri 09:51:17 PM 43.8040 -91.0050 118° Southeast 473 544 31,200 -1,650 Descending FlightAware
Fri 09:51:57 PM 43.7650 -90.9040 118° Southeast 471 542 31,000 -424 Descending FlightAware
Fri 09:52:42 PM 43.7200 -90.7870 118° Southeast 462 532 30,600 -1,275 Descending FlightAware
Fri 09:53:17 PM 43.6820 -90.6900 118° Southeast 457 526 29,300 -2,047 Descending FlightAware
Fri 09:54:07 PM 43.6340 -90.5660 118° Southeast 450 518 27,700 -1,933 Descending FlightAware
Fri 09:54:47 PM 43.5930 -90.4620 119° Southeast 455 524 26,400 -1,835 Descending FlightAware
Fri 09:55:32 PM 43.5480 -90.3480 119° Southeast 454 522 25,100 -1,624 Descending FlightAware
Fri 09:56:12 PM 43.5080 -90.2470 119° Southeast 450 518 24,100 -1,575 Descending FlightAware
Fri 09:56:52 PM 43.4710 -90.1520 118° Southeast 443 510 23,000 -1,624 Descending FlightAware
Fri 09:57:37 PM 43.4260 -90.0380 118° Southeast 441 507 21,800 -1,624 Descending FlightAware
Fri 09:58:17 PM 43.3870 -89.9410 119° Southeast 430 495 20,700 -1,624 Descending FlightAware
Fri 09:59:02 PM 43.3450 -89.8360 119° Southeast 421 484 19,500 -1,624 Descending FlightAware
Fri 09:59:42 PM 43.3070 -89.7420 119° Southeast 419 482 18,400 -1,482 Descending FlightAware
Fri 10:00:27 PM 43.2670 -89.6410 119° Southeast 408 470 17,400 -1,412 Descending FlightAware
Fri 10:01:07 PM 43.2290 -89.5460 119° Southeast 405 466 16,400 -1,341 Descending FlightAware
Fri 10:01:52 PM 43.1890 -89.4490 119° Southeast 393 452 15,500 -1,271 Descending FlightAware
Fri 10:02:32 PM 43.1530 -89.3640 120° Southeast 386 444 14,600 -1,309 Descending FlightAware
Fri 10:02:47 PM 43.1320 -89.3390 139° Southeast 382 440 14,300 -1,200 Descending FlightAware
Fri 10:03:02 PM 43.1090 -89.3250 156° South 378 435 14,000 -1,309 Descending FlightAware
Fri 10:03:42 PM 43.0430 -89.2980 163° South 375 432 13,100 -975 Descending FlightAware
Fri 10:04:22 PM 42.9780 -89.2720 164° South 364 419 12,700 -282 Descending FlightAware
Fri 10:05:07 PM 42.9030 -89.2430 164° South 362 417 12,700  Level FlightAware
Fri 10:05:47 PM 42.8390 -89.2170 163° South 367 422 12,700  Level FlightAware
Fri 10:06:27 PM 42.7740 -89.1910 164° South 366 421 12,700  Level FlightAware
Fri 10:07:12 PM 42.6990 -89.1610 164° South 368 423 12,700  Level FlightAware
Fri 10:07:52 PM 42.6360 -89.1360 164° South 368 423 12,700  Level FlightAware
Fri 10:08:37 PM 42.5650 -89.0970 158° South 370 426 12,700  Level FlightAware
Fri 10:09:02 PM 42.5410 -89.0510 125° Southeast 371 427 12,700  Level FlightAware
Fri 10:09:47 PM 42.5120 -88.9500 111° Southeast 371 427 12,700  Level FlightAware
Fri 10:10:27 PM 42.4850 -88.8630 113° Southeast 370 426 12,700 -75 Level FlightAware
Fri 10:11:07 PM 42.4600 -88.7800 112° Southeast 367 422 12,600 -1,059 Descending FlightAware
Fri 10:11:52 PM 42.4320 -88.6870 112° Southeast 355 409 11,200 -1,906 Descending FlightAware
Fri 10:12:32 PM 42.4060 -88.6020 112° Southeast 344 396 9,900 -1,371 Descending FlightAware
Fri 10:13:02 PM 42.3890 -88.5440 112° Southeast 314 361 9,600 -600 Descending FlightAware
Fri 10:13:32 PM 42.3740 -88.4960 113° Southeast 301 346 9,300 -982 Descending FlightAware
Fri 10:13:57 PM 42.3580 -88.4510 116° Southeast 301 346 8,700 -655 Descending FlightAware
Fri 10:14:27 PM 42.3350 -88.4080 126° Southeast 291 335 8,700 -218 Level FlightAware
Fri 10:14:52 PM 42.3120 -88.3710 130° Southeast 285 328 8,500 -764 Descending FlightAware
Fri 10:15:22 PM 42.2880 -88.3330 130° Southeast 282 325 8,000 -1,000 Descending FlightAware
Fri 10:15:52 PM 42.2630 -88.2930 130° Southeast 278 320 7,500 -982 Descending FlightAware
Fri 10:16:17 PM 42.2450 -88.2640 130° Southeast 276 318 7,100 -1,200 Descending FlightAware
Fri 10:16:47 PM 42.2180 -88.2200 130° Southeast 271 312 6,400 -1,467 Descending FlightAware
Fri 10:17:02 PM 42.2040 -88.1990 132° Southeast 270 311 6,000 -1,650 Descending FlightAware
Fri 10:17:27 PM 42.1850 -88.1680 130° Southeast 268 308 5,300 -1,527 Descending FlightAware
Fri 10:17:57 PM 42.1620 -88.1300 129° Southeast 259 298 4,600 -1,200 Descending FlightAware
Fri 10:18:22 PM 42.1410 -88.1030 136° Southeast 240 276 4,200 -1,050 Descending FlightAware
Fri 10:18:37 PM 42.1290 -88.0900 141° Southeast 234 269 3,900 -1,200 Descending FlightAware
Fri 10:19:07 PM 42.1050 -88.0620 139° Southeast 220 253 3,300 -1,200 Descending FlightAware
Fri 10:19:32 PM 42.0870 -88.0420 140° Southeast 202 232 2,800 -1,091 Descending FlightAware
Fri 10:20:02 PM 42.0670 -88.0190 140° Southeast 171 197 2,300 -982 Descending FlightAware
Fri 10:20:27 PM 42.0530 -88.0030 140° Southeast 147 169 1,900 -764 Descending FlightAware
Fri 10:20:57 PM 42.0370 -87.9860 142° Southeast 143 165 1,600 -700 Descending FlightAware
Fri 10:21:27 PM 42.0230 -87.9690 138° Southeast 142 163 1,200 -764 Descending FlightAware
Fri 10:21:52 PM 42.0090 -87.9540 141° Southeast 142 163 900 -764 Descending FlightAware
Fri 10:22:22 PM 41.9940 -87.9370 140° Southeast 145 167 500 -800 Descending FlightAware

Login

Don't have an account? Register now (free) for customized features, flight alerts, and more!